Time;durP1;ratioP1;P1;durP2;ratioP2;P2;SDS_P1;SDS_P2;PMS_P1;PMS_P2;Temp;Humidity;BMP_temperature;BMP_pressure;BME280_temperature;BME280_humidity;BME280_pressure;Samples;Min_cycle;Max_cycle;Signal;HPM_P1;HPM_P2
2023/05/30 00:01:43;;;;;;;;;;;16.40;65.80;;;;;;4977556;28;19925;-71
2023/05/30 00:04:09;;;;;;;;;;;16.40;65.80;;;;;;4972956;28;19967;-71
2023/05/30 00:06:34;;;;;;;;;;;16.40;65.80;;;;;;4988683;28;20719;-71
2023/05/30 00:09:01;;;;;;;;;;;16.30;65.90;;;;;;4988384;28;20313;-71
2023/05/30 00:11:28;;;;;;;;;;;16.30;65.90;;;;;;4987199;28;19979;-71
2023/05/30 00:13:54;;;;;;;;;;;16.30;65.90;;;;;;4988170;28;19918;-71
2023/05/30 00:16:20;;;;;;;;;;;16.20;65.90;;;;;;4988422;28;19909;-71
2023/05/30 00:18:46;;;;;;;;;;;16.20;65.80;;;;;;4988274;28;20028;-71
2023/05/30 00:21:11;;;;;;;;;;;16.20;66.00;;;;;;4988392;28;20362;-71
2023/05/30 00:23:38;;;;;;;;;;;16.10;66.00;;;;;;4988004;28;19929;-71
2023/05/30 00:26:04;;;;;;;;;;;16.10;66.00;;;;;;4988177;28;20398;-71
2023/05/30 00:28:29;;;;;;;;;;;16.10;66.00;;;;;;4987876;28;19909;-71
2023/05/30 00:30:55;;;;;;;;;;;16.00;66.10;;;;;;4987541;28;19937;-71
2023/05/30 00:33:20;;;;;;;;;;;16.00;66.00;;;;;;4987631;28;20006;-71
2023/05/30 00:35:46;;;;;;;;;;;16.00;66.10;;;;;;4988362;28;19916;-71
2023/05/30 00:38:11;;;;;;;;;;;16.00;66.10;;;;;;4987893;28;20382;-71
2023/05/30 00:40:37;;;;;;;;;;;15.90;66.20;;;;;;4986630;28;20087;-71
2023/05/30 00:43:02;;;;;;;;;;;15.90;66.20;;;;;;5055438;28;19935;-71
2023/05/30 00:45:28;;;;;;;;;;;15.90;66.20;;;;;;5089096;28;19912;-71
2023/05/30 00:47:53;;;;;;;;;;;15.90;66.20;;;;;;5090148;28;19941;-71
2023/05/30 00:50:20;;;;;;;;;;;15.80;66.20;;;;;;5018128;28;19925;-71
2023/05/30 00:52:46;;;;;;;;;;;15.80;66.20;;;;;;4987578;28;19914;-71
2023/05/30 00:55:12;;;;;;;;;;;15.80;66.40;;;;;;4986518;28;19913;-71
2023/05/30 00:57:39;;;;;;;;;;;15.70;66.40;;;;;;4987743;28;19952;-71
2023/05/30 01:00:05;;;;;;;;;;;15.70;66.40;;;;;;4987705;28;19913;-71
2023/05/30 01:02:33;;;;;;;;;;;15.70;66.60;;;;;;4968585;28;20290;-71
2023/05/30 01:05:00;;;;;;;;;;;15.70;66.50;;;;;;4979048;28;19913;-71
2023/05/30 01:07:27;;;;;;;;;;;15.60;66.50;;;;;;4986030;28;20034;-71
2023/05/30 01:09:53;;;;;;;;;;;15.60;66.60;;;;;;4987673;28;19990;-71
2023/05/30 01:12:28;;;;;;;;;;;15.60;66.70;;;;;;4987249;28;20655;-71
2023/05/30 01:15:03;;;;;;;;;;;15.60;66.80;;;;;;4987725;28;20553;-71
2023/05/30 01:17:30;;;;;;;;;;;15.50;66.90;;;;;;4986025;28;19914;-71
2023/05/30 01:20:17;;;;;;;;;;;15.50;66.80;;;;;;4987555;28;19935;-71
2023/05/30 01:23:01;;;;;;;;;;;15.50;66.90;;;;;;4986629;28;19974;-71
2023/05/30 01:25:27;;;;;;;;;;;15.40;66.70;;;;;;4986144;28;20620;-71
2023/05/30 01:27:56;;;;;;;;;;;15.40;67.30;;;;;;4987251;28;20099;-71
2023/05/30 01:30:24;;;;;;;;;;;15.40;67.00;;;;;;4985526;28;19953;-71
2023/05/30 01:32:50;;;;;;;;;;;15.30;67.00;;;;;;4985611;28;19910;-71
2023/05/30 01:35:22;;;;;;;;;;;15.30;66.90;;;;;;4987694;28;19921;-71
2023/05/30 01:37:48;;;;;;;;;;;15.30;67.00;;;;;;4985601;28;19910;-71
2023/05/30 01:40:15;;;;;;;;;;;15.30;67.10;;;;;;4986529;28;19963;-71
2023/05/30 01:42:42;;;;;;;;;;;15.30;67.50;;;;;;4985488;28;19940;-71
2023/05/30 01:45:08;;;;;;;;;;;15.20;67.40;;;;;;4985793;28;20005;-71
2023/05/30 01:47:43;;;;;;;;;;;15.20;68.10;;;;;;4987007;28;20000;-71
2023/05/30 01:50:13;;;;;;;;;;;15.20;67.60;;;;;;4985951;28;19954;-71
2023/05/30 01:52:40;;;;;;;;;;;15.10;67.30;;;;;;4986558;28;19917;-71
2023/05/30 01:55:07;;;;;;;;;;;15.10;67.30;;;;;;4987046;28;19917;-71
2023/05/30 01:57:34;;;;;;;;;;;15.10;67.60;;;;;;4985405;28;19917;-71
2023/05/30 02:00:00;;;;;;;;;;;15.10;67.50;;;;;;4986925;28;19921;-71
2023/05/30 02:02:26;;;;;;;;;;;15.00;68.20;;;;;;4969700;28;20332;-71
2023/05/30 02:04:51;;;;;;;;;;;15.00;67.90;;;;;;4975928;28;19910;-71
2023/05/30 02:07:17;;;;;;;;;;;15.00;68.00;;;;;;4986608;28;20406;-71
2023/05/30 02:09:42;;;;;;;;;;;15.00;67.60;;;;;;4985378;28;19921;-71
2023/05/30 02:12:08;;;;;;;;;;;14.90;68.00;;;;;;4985096;28;19914;-71
2023/05/30 02:14:33;;;;;;;;;;;14.90;68.20;;;;;;4985169;28;19920;-71
2023/05/30 02:16:59;;;;;;;;;;;14.90;68.30;;;;;;4986642;28;20020;-71
2023/05/30 02:19:25;;;;;;;;;;;14.90;68.20;;;;;;4986564;28;19914;-71
2023/05/30 02:21:50;;;;;;;;;;;14.90;68.50;;;;;;4986355;28;19936;-71
2023/05/30 02:24:16;;;;;;;;;;;14.80;68.30;;;;;;4986619;28;19966;-71
2023/05/30 02:26:41;;;;;;;;;;;14.80;68.30;;;;;;4986631;28;19914;-71
2023/05/30 02:29:07;;;;;;;;;;;14.80;68.30;;;;;;4983061;28;19918;-71
2023/05/30 02:31:32;;;;;;;;;;;14.80;68.50;;;;;;4984899;28;20165;-71
2023/05/30 02:33:58;;;;;;;;;;;14.80;68.60;;;;;;4984832;28;20484;-71
2023/05/30 02:36:23;;;;;;;;;;;14.70;68.50;;;;;;5065192;28;19923;-70
2023/05/30 02:38:49;;;;;;;;;;;14.70;68.70;;;;;;4995313;28;19910;-71
2023/05/30 02:41:14;;;;;;;;;;;14.70;68.90;;;;;;4985277;28;20293;-71
2023/05/30 02:43:40;;;;;;;;;;;14.70;68.90;;;;;;4986168;28;20271;-71
2023/05/30 02:46:06;;;;;;;;;;;14.70;68.90;;;;;;4986364;28;20553;-71
2023/05/30 02:48:31;;;;;;;;;;;14.70;68.80;;;;;;4986180;28;19914;-71
2023/05/30 02:50:57;;;;;;;;;;;14.60;69.00;;;;;;4986581;28;19953;-71
2023/05/30 02:53:22;;;;;;;;;;;14.70;68.90;;;;;;5006269;28;19921;-71
2023/05/30 02:55:48;;;;;;;;;;;14.60;69.00;;;;;;5027556;28;19929;-71
2023/05/30 02:58:14;;;;;;;;;;;14.60;69.10;;;;;;4989062;28;19925;-71
2023/05/30 03:00:40;;;;;;;;;;;14.60;69.10;;;;;;4985425;28;19933;-71
2023/05/30 03:03:08;;;;;;;;;;;14.60;69.20;;;;;;4969777;28;20370;-71
2023/05/30 03:05:34;;;;;;;;;;;14.60;69.10;;;;;;4987084;28;19925;-71
2023/05/30 03:08:00;;;;;;;;;;;14.60;69.10;;;;;;4987596;28;20012;-71
2023/05/30 03:10:26;;;;;;;;;;;14.50;69.10;;;;;;4989424;28;20067;-71
2023/05/30 03:12:51;;;;;;;;;;;14.50;69.00;;;;;;4989217;28;19917;-72
2023/05/30 03:15:20;;;;;;;;;;;14.50;69.10;;;;;;4989550;28;20005;-71
2023/05/30 03:17:46;;;;;;;;;;;14.50;69.20;;;;;;4989523;28;19914;-71
2023/05/30 03:20:12;;;;;;;;;;;14.50;69.20;;;;;;4988048;28;19910;-71
2023/05/30 03:22:38;;;;;;;;;;;14.50;69.10;;;;;;4988759;28;20003;-71
2023/05/30 03:25:05;;;;;;;;;;;14.50;69.00;;;;;;4988049;28;19918;-71
2023/05/30 03:27:30;;;;;;;;;;;14.50;69.30;;;;;;4989261;28;19914;-71
2023/05/30 03:29:56;;;;;;;;;;;14.40;69.10;;;;;;4989037;28;19918;-71
2023/05/30 03:32:21;;;;;;;;;;;14.40;69.10;;;;;;4988437;28;20000;-71
2023/05/30 03:34:47;;;;;;;;;;;14.40;69.20;;;;;;4989726;28;19996;-71
2023/05/30 03:37:13;;;;;;;;;;;14.40;69.20;;;;;;4987896;28;19918;-71
2023/05/30 03:39:38;;;;;;;;;;;14.40;69.20;;;;;;4989319;28;19921;-71
2023/05/30 03:42:04;;;;;;;;;;;14.40;69.30;;;;;;4987494;28;19914;-71
2023/05/30 03:44:30;;;;;;;;;;;14.40;69.30;;;;;;4989312;28;19914;-71
2023/05/30 03:46:55;;;;;;;;;;;14.50;69.50;;;;;;4988977;28;20297;-71
2023/05/30 03:49:21;;;;;;;;;;;14.40;69.50;;;;;;4989064;28;19918;-71
2023/05/30 03:51:46;;;;;;;;;;;14.40;69.50;;;;;;4987435;28;19910;-71
2023/05/30 03:54:12;;;;;;;;;;;14.40;69.50;;;;;;4987498;28;19929;-71
2023/05/30 03:56:37;;;;;;;;;;;14.40;69.70;;;;;;4988954;28;20351;-71
2023/05/30 03:59:03;;;;;;;;;;;14.40;69.60;;;;;;4988564;28;19914;-71
2023/05/30 04:01:30;;;;;;;;;;;14.40;69.50;;;;;;4979781;28;19910;-71
2023/05/30 04:03:56;;;;;;;;;;;14.40;69.60;;;;;;4970428;28;20245;-71
2023/05/30 04:06:24;;;;;;;;;;;14.40;69.70;;;;;;4988788;28;19921;-71
2023/05/30 04:08:50;;;;;;;;;;;14.40;69.70;;;;;;4988479;28;19972;-71
2023/05/30 04:11:15;;;;;;;;;;;14.40;69.70;;;;;;4987418;28;19957;-71
2023/05/30 04:13:41;;;;;;;;;;;14.40;69.90;;;;;;4988539;28;20292;-71
2023/05/30 04:16:06;;;;;;;;;;;14.40;69.70;;;;;;4987314;28;19914;-71
2023/05/30 04:18:32;;;;;;;;;;;14.40;69.80;;;;;;4988471;28;20333;-71
2023/05/30 04:20:57;;;;;;;;;;;14.40;69.90;;;;;;4988538;28;20276;-71
2023/05/30 04:23:23;;;;;;;;;;;14.40;69.90;;;;;;4988028;28;20323;-71
2023/05/30 04:25:49;;;;;;;;;;;14.40;69.80;;;;;;4988499;28;19910;-71
2023/05/30 04:28:19;;;;;;;;;;;14.40;69.90;;;;;;4988376;28;19940;-71
2023/05/30 04:30:48;;;;;;;;;;;14.40;70.00;;;;;;4987638;28;19998;-71
2023/05/30 04:33:15;;;;;;;;;;;14.40;69.90;;;;;;4987715;28;19913;-71
2023/05/30 04:35:41;;;;;;;;;;;14.40;70.00;;;;;;4987074;28;20098;-71
2023/05/30 04:38:06;;;;;;;;;;;14.40;70.00;;;;;;4987984;28;19955;-71
2023/05/30 04:40:32;;;;;;;;;;;14.40;70.00;;;;;;4988194;28;20310;-71
2023/05/30 04:42:59;;;;;;;;;;;14.40;70.00;;;;;;4986632;28;19921;-71
2023/05/30 04:45:28;;;;;;;;;;;14.40;70.00;;;;;;5081210;28;20365;-71
2023/05/30 04:47:54;;;;;;;;;;;14.40;70.00;;;;;;5088790;28;20003;-71
2023/05/30 04:50:20;;;;;;;;;;;14.40;70.00;;;;;;5017352;28;20082;-71
2023/05/30 04:52:46;;;;;;;;;;;14.40;70.10;;;;;;4987541;28;20011;-71
2023/05/30 04:55:12;;;;;;;;;;;14.40;70.70;;;;;;4986592;28;19976;-71
2023/05/30 04:57:38;;;;;;;;;;;14.40;70.10;;;;;;4987869;28;19918;-70
2023/05/30 05:00:05;;;;;;;;;;;14.40;70.10;;;;;;4987868;28;20282;-72
2023/05/30 05:02:30;;;;;;;;;;;14.40;70.10;;;;;;4968782;28;19914;-71
2023/05/30 05:04:56;;;;;;;;;;;14.40;70.00;;;;;;4977369;28;19914;-71
2023/05/30 05:07:21;;;;;;;;;;;14.40;69.90;;;;;;4987721;28;19917;-71
2023/05/30 05:09:47;;;;;;;;;;;14.50;70.20;;;;;;4987752;28;19920;-71
2023/05/30 05:12:13;;;;;;;;;;;14.50;70.10;;;;;;4986164;28;19914;-71
2023/05/30 05:14:40;;;;;;;;;;;14.50;70.10;;;;;;4986664;28;19921;-71
2023/05/30 05:17:06;;;;;;;;;;;14.50;70.10;;;;;;4987468;28;20366;-71
2023/05/30 05:19:31;;;;;;;;;;;14.50;70.20;;;;;;4987429;28;19916;-70
2023/05/30 05:21:57;;;;;;;;;;;14.50;70.10;;;;;;4987083;28;19933;-71
2023/05/30 05:24:22;;;;;;;;;;;14.50;70.10;;;;;;4986160;28;19914;-71
2023/05/30 05:26:48;;;;;;;;;;;14.50;70.10;;;;;;4987640;28;19917;-71
2023/05/30 05:29:13;;;;;;;;;;;14.50;70.00;;;;;;4987306;28;20058;-71
2023/05/30 05:31:39;;;;;;;;;;;14.50;70.20;;;;;;4986707;28;20254;-71
2023/05/30 05:34:04;;;;;;;;;;;14.50;70.10;;;;;;4987390;28;19913;-71
2023/05/30 05:36:30;;;;;;;;;;;14.60;70.30;;;;;;4986229;28;19914;-72
2023/05/30 05:38:56;;;;;;;;;;;14.60;70.10;;;;;;4987113;28;19914;-71
2023/05/30 05:41:21;;;;;;;;;;;14.60;70.10;;;;;;4987410;28;20339;-71
2023/05/30 05:43:47;;;;;;;;;;;14.60;70.20;;;;;;4987181;28;19914;-71
2023/05/30 05:46:12;;;;;;;;;;;14.60;70.20;;;;;;4987300;28;19961;-71
2023/05/30 05:48:38;;;;;;;;;;;14.60;70.10;;;;;;4986876;28;20400;-71
2023/05/30 05:51:03;;;;;;;;;;;14.60;70.10;;;;;;4987220;28;19914;-70
2023/05/30 05:53:29;;;;;;;;;;;14.60;69.90;;;;;;4985053;28;19925;-70
2023/05/30 05:55:55;;;;;;;;;;;14.60;70.20;;;;;;4987485;28;20008;-71
2023/05/30 05:58:20;;;;;;;;;;;14.70;70.20;;;;;;4986940;28;20045;-71
2023/05/30 06:00:46;;;;;;;;;;;14.70;70.90;;;;;;4982681;28;19992;-71
2023/05/30 06:03:11;;;;;;;;;;;14.70;70.20;;;;;;4967107;28;19932;-71
2023/05/30 06:05:37;;;;;;;;;;;14.70;70.10;;;;;;4983151;28;19924;-71
2023/05/30 06:08:02;;;;;;;;;;;14.70;70.70;;;;;;4985033;28;19910;-71
2023/05/30 06:10:28;;;;;;;;;;;14.70;70.10;;;;;;4986595;28;19920;-71
2023/05/30 06:12:55;;;;;;;;;;;14.70;70.20;;;;;;4986493;28;19949;-71
2023/05/30 06:15:20;;;;;;;;;;;14.80;70.20;;;;;;4986717;28;19949;-70
2023/05/30 06:17:46;;;;;;;;;;;14.80;70.20;;;;;;4986488;28;19952;-71
2023/05/30 06:20:11;;;;;;;;;;;14.80;70.20;;;;;;4986625;28;20574;-71
2023/05/30 06:22:37;;;;;;;;;;;14.80;70.10;;;;;;4986083;28;19921;-70
2023/05/30 06:25:03;;;;;;;;;;;14.80;70.20;;;;;;4986894;28;20320;-71
2023/05/30 06:27:29;;;;;;;;;;;14.80;70.10;;;;;;4984522;28;19906;-71
2023/05/30 06:29:54;;;;;;;;;;;14.80;70.00;;;;;;4986327;28;19914;-71
2023/05/30 06:32:20;;;;;;;;;;;14.90;70.20;;;;;;4984452;28;20257;-71
2023/05/30 06:34:45;;;;;;;;;;;14.90;70.10;;;;;;4986572;28;19914;-71
2023/05/30 06:37:12;;;;;;;;;;;14.90;70.10;;;;;;5016691;28;20029;-71
2023/05/30 06:39:38;;;;;;;;;;;14.90;70.10;;;;;;4986540;28;19913;-71
2023/05/30 06:42:04;;;;;;;;;;;14.90;70.10;;;;;;4985983;28;19967;-71
2023/05/30 06:44:29;;;;;;;;;;;15.00;70.10;;;;;;4985072;28;19910;-71
2023/05/30 06:46:56;;;;;;;;;;;15.00;70.20;;;;;;4986300;28;20528;-71
2023/05/30 06:49:22;;;;;;;;;;;15.00;70.00;;;;;;4986253;28;19914;-70
2023/05/30 06:51:47;;;;;;;;;;;15.00;70.00;;;;;;4984687;28;20389;-70
2023/05/30 06:54:13;;;;;;;;;;;15.00;70.00;;;;;;4984793;28;19949;-70
2023/05/30 06:56:38;;;;;;;;;;;15.00;70.00;;;;;;4986171;28;19914;-70
2023/05/30 06:59:04;;;;;;;;;;;15.10;70.00;;;;;;4986049;28;20374;-71
2023/05/30 07:01:29;;;;;;;;;;;15.10;70.00;;;;;;4977149;28;20368;-70
2023/05/30 07:03:55;;;;;;;;;;;15.10;70.00;;;;;;4968275;28;19957;-71
2023/05/30 07:06:20;;;;;;;;;;;15.10;70.00;;;;;;4984689;28;20000;-71
2023/05/30 07:08:46;;;;;;;;;;;15.10;70.00;;;;;;4985906;28;19913;-71
2023/05/30 07:11:11;;;;;;;;;;;15.10;70.00;;;;;;4984812;28;19910;-71
2023/05/30 07:13:37;;;;;;;;;;;15.10;70.10;;;;;;4985700;28;19913;-71
2023/05/30 07:16:02;;;;;;;;;;;15.10;70.10;;;;;;4985900;28;20024;-71
2023/05/30 07:18:28;;;;;;;;;;;15.10;70.00;;;;;;4984363;28;19914;-71
2023/05/30 07:20:53;;;;;;;;;;;15.10;70.10;;;;;;4984597;28;19914;-71
2023/05/30 07:23:19;;;;;;;;;;;15.10;70.20;;;;;;4985502;28;19961;-71
2023/05/30 07:25:44;;;;;;;;;;;15.10;70.10;;;;;;4986129;28;19913;-71
2023/05/30 07:28:10;;;;;;;;;;;15.10;70.10;;;;;;4985701;28;19957;-71
2023/05/30 07:30:36;;;;;;;;;;;15.10;70.00;;;;;;4980685;28;20568;-71
2023/05/30 07:33:01;;;;;;;;;;;15.10;70.20;;;;;;4984921;28;20354;-71
2023/05/30 07:35:27;;;;;;;;;;;15.10;70.20;;;;;;4985872;28;19914;-71
2023/05/30 07:37:52;;;;;;;;;;;15.10;70.20;;;;;;4985780;28;19910;-71
2023/05/30 07:40:18;;;;;;;;;;;15.10;70.00;;;;;;4989553;28;19979;-71
2023/05/30 07:42:44;;;;;;;;;;;15.10;70.20;;;;;;4988729;28;20251;-71
2023/05/30 07:45:10;;;;;;;;;;;15.10;70.00;;;;;;4987587;28;20013;-71
2023/05/30 07:47:35;;;;;;;;;;;15.10;70.10;;;;;;4988379;28;20296;-71
2023/05/30 07:50:01;;;;;;;;;;;15.10;70.10;;;;;;4988284;28;20361;-71
2023/05/30 07:52:27;;;;;;;;;;;15.20;70.10;;;;;;4987635;28;19914;-71
2023/05/30 07:54:52;;;;;;;;;;;15.20;70.10;;;;;;4988818;28;19917;-71
2023/05/30 07:57:18;;;;;;;;;;;15.20;70.00;;;;;;4988874;28;20000;-71
2023/05/30 07:59:43;;;;;;;;;;;15.20;69.90;;;;;;4988920;28;19914;-71
2023/05/30 08:02:09;;;;;;;;;;;15.20;70.00;;;;;;4974098;28;19915;-71
2023/05/30 08:04:35;;;;;;;;;;;15.20;70.00;;;;;;4976714;28;19939;-71
2023/05/30 08:07:02;;;;;;;;;;;15.20;70.00;;;;;;4987085;28;19917;-71
2023/05/30 08:09:28;;;;;;;;;;;15.20;69.90;;;;;;4988481;28;19921;-71
2023/05/30 08:11:54;;;;;;;;;;;15.20;69.80;;;;;;4988278;28;20325;-71
2023/05/30 08:14:20;;;;;;;;;;;15.20;69.90;;;;;;4988437;28;19913;-71
2023/05/30 08:16:45;;;;;;;;;;;15.20;69.90;;;;;;4988383;28;19913;-71
2023/05/30 08:19:11;;;;;;;;;;;15.30;70.00;;;;;;4988043;28;20040;-71
2023/05/30 08:21:36;;;;;;;;;;;15.30;69.90;;;;;;4986811;28;20009;-71
2023/05/30 08:24:02;;;;;;;;;;;15.30;69.90;;;;;;4986521;28;19929;-71
2023/05/30 08:26:31;;;;;;;;;;;15.30;69.90;;;;;;4988340;28;19910;-71
2023/05/30 08:28:57;;;;;;;;;;;15.30;69.80;;;;;;4987849;28;20008;-70
2023/05/30 08:31:23;;;;;;;;;;;15.30;69.90;;;;;;4987771;28;20635;-71
2023/05/30 08:33:48;;;;;;;;;;;15.30;69.80;;;;;;4987806;28;20055;-71
2023/05/30 08:36:15;;;;;;;;;;;15.30;69.90;;;;;;4988248;28;19914;-70
2023/05/30 08:38:41;;;;;;;;;;;15.30;69.80;;;;;;4988027;28;19914;-71
2023/05/30 08:41:06;;;;;;;;;;;15.30;69.80;;;;;;5011870;28;19916;-71
2023/05/30 08:43:32;;;;;;;;;;;15.40;69.80;;;;;;5088805;28;20409;-72
2023/05/30 08:45:57;;;;;;;;;;;15.40;69.80;;;;;;5089026;28;19919;-71
2023/05/30 08:48:23;;;;;;;;;;;15.40;69.80;;;;;;5090127;28;20365;-71
2023/05/30 08:50:49;;;;;;;;;;;15.40;69.70;;;;;;4996708;28;19949;-71
2023/05/30 08:53:17;;;;;;;;;;;15.40;69.70;;;;;;4987637;28;20020;-71
2023/05/30 08:55:48;;;;;;;;;;;15.40;69.50;;;;;;4987924;28;19917;-70
2023/05/30 08:58:29;;;;;;;;;;;15.40;69.60;;;;;;4987743;28;20005;-71
2023/05/30 09:00:55;;;;;;;;;;;15.50;69.60;;;;;;4983642;28;19910;-71
2023/05/30 09:03:22;;;;;;;;;;;15.50;69.70;;;;;;4967992;28;19914;-71
2023/05/30 09:05:49;;;;;;;;;;;15.50;69.50;;;;;;4985410;28;19963;-70
2023/05/30 09:08:15;;;;;;;;;;;15.50;69.50;;;;;;4987484;28;20271;-70
2023/05/30 09:10:48;;;;;;;;;;;15.50;69.40;;;;;;4987484;28;19924;-71
2023/05/30 09:13:14;;;;;;;;;;;15.60;69.40;;;;;;4987199;28;20000;-71
2023/05/30 09:15:39;;;;;;;;;;;15.60;69.40;;;;;;4987610;28;20005;-71
2023/05/30 09:18:05;;;;;;;;;;;15.60;69.20;;;;;;4986062;28;19918;-71
2023/05/30 09:20:31;;;;;;;;;;;15.70;69.20;;;;;;4987405;28;20008;-71
2023/05/30 09:22:57;;;;;;;;;;;15.70;69.00;;;;;;4987067;28;19918;-71
2023/05/30 09:25:22;;;;;;;;;;;15.70;69.00;;;;;;4987500;28;20312;-71
2023/05/30 09:27:49;;;;;;;;;;;15.80;69.00;;;;;;4987202;28;20000;-71
2023/05/30 09:30:16;;;;;;;;;;;15.80;68.80;;;;;;4986847;28;20016;-71
2023/05/30 09:32:42;;;;;;;;;;;15.80;68.80;;;;;;4986999;28;20327;-71
2023/05/30 09:35:09;;;;;;;;;;;15.80;68.80;;;;;;4987424;28;19950;-71
2023/05/30 09:37:36;;;;;;;;;;;15.80;68.80;;;;;;4986865;28;19976;-71
2023/05/30 09:40:06;;;;;;;;;;;15.90;68.70;;;;;;4985509;28;20607;-71
2023/05/30 09:42:51;;;;;;;;;;;15.90;68.60;;;;;;4986770;28;19912;-71
2023/05/30 09:45:18;;;;;;;;;;;16.00;68.70;;;;;;4987453;28;19917;-71
2023/05/30 09:47:47;;;;;;;;;;;16.00;68.60;;;;;;4986922;28;19918;-70
2023/05/30 09:50:14;;;;;;;;;;;16.10;68.60;;;;;;4987106;28;19917;-71
2023/05/30 09:52:40;;;;;;;;;;;16.10;68.50;;;;;;4985315;28;19914;-71
2023/05/30 09:55:07;;;;;;;;;;;16.10;68.40;;;;;;4985869;28;19914;-71
2023/05/30 09:57:35;;;;;;;;;;;16.20;68.30;;;;;;4986775;28;20434;-71
2023/05/30 10:00:24;;;;;;;;;;;16.20;68.90;;;;;;4987024;28;19952;-71
2023/05/30 10:02:54;;;;;;;;;;;16.30;68.20;;;;;;4963654;28;19914;-71
2023/05/30 10:05:19;;;;;;;;;;;16.30;68.10;;;;;;4980911;28;19914;-71
2023/05/30 10:07:46;;;;;;;;;;;16.40;68.10;;;;;;4986752;28;20523;-71
2023/05/30 10:10:15;;;;;;;;;;;16.40;68.10;;;;;;4986716;28;19918;-71
2023/05/30 10:12:46;;;;;;;;;;;16.50;68.10;;;;;;4986244;28;19967;-70
2023/05/30 10:15:12;;;;;;;;;;;16.50;67.90;;;;;;4986744;28;19921;-71
2023/05/30 10:17:43;;;;;;;;;;;16.60;67.90;;;;;;4986225;28;20005;-71
2023/05/30 10:20:11;;;;;;;;;;;16.60;67.90;;;;;;4986612;28;20259;-71
2023/05/30 10:22:40;;;;;;;;;;;16.70;67.90;;;;;;4985964;28;19922;-70
2023/05/30 10:25:06;;;;;;;;;;;16.70;67.90;;;;;;4986733;28;19921;-71
2023/05/30 10:27:34;;;;;;;;;;;16.80;68.00;;;;;;4986255;28;19914;-71
2023/05/30 10:30:00;;;;;;;;;;;16.80;67.90;;;;;;4986060;28;19914;-70
2023/05/30 10:32:27;;;;;;;;;;;16.90;67.90;;;;;;4984044;28;19941;-71
2023/05/30 10:34:57;;;;;;;;;;;17.00;67.80;;;;;;4985083;28;19913;-70
2023/05/30 10:37:23;;;;;;;;;;;17.00;67.80;;;;;;4986222;28;19918;-71
2023/05/30 10:39:52;;;;;;;;;;;17.10;67.80;;;;;;5073149;28;19954;-71
2023/05/30 10:42:27;;;;;;;;;;;17.20;67.90;;;;;;5088315;28;20348;-71
2023/05/30 10:44:55;;;;;;;;;;;17.20;67.80;;;;;;5088593;28;20003;-71
2023/05/30 10:47:39;;;;;;;;;;;17.30;67.70;;;;;;5088163;28;19947;-71
2023/05/30 10:50:09;;;;;;;;;;;17.40;67.80;;;;;;5025595;28;19929;-71
2023/05/30 10:52:35;;;;;;;;;;;17.50;67.70;;;;;;4983470;28;19917;-70
2023/05/30 10:55:00;;;;;;;;;;;17.60;67.60;;;;;;4984706;28;19913;-71
2023/05/30 10:57:28;;;;;;;;;;;17.70;67.60;;;;;;4986049;28;19959;-70
2023/05/30 10:59:59;;;;;;;;;;;17.80;67.50;;;;;;4984617;28;20497;-70
2023/05/30 11:02:35;;;;;;;;;;;17.90;67.40;;;;;;4969054;28;20366;-70
2023/05/30 11:05:06;;;;;;;;;;;18.00;67.40;;;;;;4977373;28;19949;-71
2023/05/30 11:07:32;;;;;;;;;;;18.10;67.60;;;;;;4985729;28;19914;-70
2023/05/30 11:10:06;;;;;;;;;;;18.20;67.30;;;;;;4985838;28;20004;-70
2023/05/30 11:12:31;;;;;;;;;;;18.30;67.00;;;;;;4985643;28;19920;-70
2023/05/30 11:14:58;;;;;;;;;;;18.40;67.00;;;;;;4989132;28;19913;-70
2023/05/30 11:17:33;;;;;;;;;;;18.50;66.90;;;;;;4989008;28;19916;-70
2023/05/30 11:20:09;;;;;;;;;;;18.60;67.60;;;;;;4989175;28;19955;-70
2023/05/30 11:22:37;;;;;;;;;;;18.60;67.10;;;;;;4988529;28;19929;-70
2023/05/30 11:25:19;;;;;;;;;;;18.80;67.10;;;;;;4989091;28;19920;-70
2023/05/30 11:28:03;;;;;;;;;;;18.80;67.00;;;;;;4989122;28;19983;-71
2023/05/30 11:30:29;;;;;;;;;;;18.90;67.10;;;;;;4986584;28;20375;-71
2023/05/30 11:32:57;;;;;;;;;;;19.00;66.80;;;;;;4987240;28;19914;-70
2023/05/30 11:35:24;;;;;;;;;;;19.10;66.70;;;;;;4989153;28;19917;-70
2023/05/30 11:37:50;;;;;;;;;;;19.20;66.70;;;;;;4987425;28;19914;-70
2023/05/30 11:40:16;;;;;;;;;;;19.30;66.70;;;;;;4988896;28;19914;-70
2023/05/30 11:42:42;;;;;;;;;;;19.30;66.60;;;;;;4987568;28;19920;-71
2023/05/30 11:45:08;;;;;;;;;;;19.40;66.70;;;;;;4988964;28;20466;-70
2023/05/30 11:47:34;;;;;;;;;;;19.40;66.70;;;;;;4988729;28;19914;-70
2023/05/30 11:49:59;;;;;;;;;;;19.60;66.70;;;;;;4987277;28;19967;-70
2023/05/30 11:52:25;;;;;;;;;;;19.60;66.70;;;;;;4986991;28;20685;-70
2023/05/30 11:54:56;;;;;;;;;;;19.70;66.50;;;;;;4987523;28;20016;-70
2023/05/30 11:57:22;;;;;;;;;;;19.80;66.60;;;;;;4988924;28;19910;-70
2023/05/30 11:59:49;;;;;;;;;;;19.90;66.50;;;;;;4988787;28;19917;-71
2023/05/30 12:02:14;;;;;;;;;;;19.90;66.40;;;;;;4972115;28;19914;-70
2023/05/30 12:04:40;;;;;;;;;;;20.00;66.40;;;;;;4977460;28;19921;-70
2023/05/30 12:07:06;;;;;;;;;;;20.10;66.40;;;;;;4988567;28;19914;-69
2023/05/30 12:09:36;;;;;;;;;;;20.10;66.50;;;;;;4988375;28;19918;-70
2023/05/30 12:12:02;;;;;;;;;;;20.20;66.40;;;;;;4988118;28;19921;-70
2023/05/30 12:14:38;;;;;;;;;;;20.20;66.50;;;;;;4987068;28;19918;-70
2023/05/30 12:17:11;;;;;;;;;;;20.30;66.60;;;;;;4988354;28;19914;-70
2023/05/30 12:19:36;;;;;;;;;;;20.40;66.60;;;;;;4988342;28;19966;-70
2023/05/30 12:22:04;;;;;;;;;;;20.50;66.60;;;;;;4987833;28;19913;-70
2023/05/30 12:24:33;;;;;;;;;;;20.50;66.40;;;;;;4987709;28;19914;-70
2023/05/30 12:26:59;;;;;;;;;;;20.60;66.40;;;;;;4988279;28;19917;-70
2023/05/30 12:29:25;;;;;;;;;;;20.70;66.40;;;;;;4984187;28;19918;-70
2023/05/30 12:31:51;;;;;;;;;;;20.80;66.30;;;;;;4987019;28;19920;-70
2023/05/30 12:34:17;;;;;;;;;;;20.80;66.30;;;;;;5074937;28;19988;-70
2023/05/30 12:36:45;;;;;;;;;;;20.80;66.30;;;;;;5086566;28;19992;-70
2023/05/30 12:39:10;;;;;;;;;;;20.90;66.50;;;;;;4986308;28;19925;-70
2023/05/30 12:41:39;;;;;;;;;;;20.90;66.40;;;;;;4987638;28;19914;-70
2023/05/30 12:44:04;;;;;;;;;;;21.00;66.40;;;;;;4987491;28;19913;-70
2023/05/30 12:46:33;;;;;;;;;;;21.00;66.30;;;;;;4987685;28;19913;-70
2023/05/30 12:48:59;;;;;;;;;;;21.10;66.30;;;;;;4986369;28;19914;-70
2023/05/30 12:51:25;;;;;;;;;;;21.20;66.20;;;;;;4986761;28;19965;-70
2023/05/30 12:53:53;;;;;;;;;;;21.20;66.30;;;;;;4985028;28;19914;-70
2023/05/30 12:56:18;;;;;;;;;;;21.30;66.30;;;;;;4987047;28;20329;-70
2023/05/30 12:58:44;;;;;;;;;;;21.40;66.30;;;;;;4985282;28;19913;-70
2023/05/30 13:01:10;;;;;;;;;;;21.40;66.30;;;;;;4986838;28;19921;-70
2023/05/30 13:03:36;;;;;;;;;;;21.50;66.30;;;;;;4999594;28;20430;-70
2023/05/30 13:06:02;;;;;;;;;;;21.60;66.20;;;;;;4987165;28;20405;-70
2023/05/30 13:08:28;;;;;;;;;;;21.60;66.10;;;;;;4986013;28;20597;-70
2023/05/30 13:10:53;;;;;;;;;;;21.70;66.10;;;;;;4989751;28;19929;-70
2023/05/30 13:13:19;;;;;;;;;;;21.70;66.00;;;;;;5002210;28;19920;-70
2023/05/30 13:15:45;;;;;;;;;;;21.80;66.00;;;;;;4986878;28;20582;-70
2023/05/30 13:18:10;;;;;;;;;;;21.80;66.00;;;;;;4985156;28;20674;-70
2023/05/30 13:20:36;;;;;;;;;;;21.90;66.20;;;;;;4986645;28;19921;-70
2023/05/30 13:23:02;;;;;;;;;;;21.90;66.00;;;;;;4986098;28;20538;-70
2023/05/30 13:25:27;;;;;;;;;;;21.90;66.00;;;;;;4986284;28;19913;-70
2023/05/30 13:27:53;;;;;;;;;;;22.00;66.20;;;;;;4986407;28;20008;-70
2023/05/30 13:30:20;;;;;;;;;;;22.10;66.00;;;;;;4984972;28;20409;-70
2023/05/30 13:32:46;;;;;;;;;;;22.10;65.80;;;;;;4984294;28;19918;-70
2023/05/30 13:35:11;;;;;;;;;;;22.20;65.80;;;;;;4985720;28;19997;-70
2023/05/30 13:37:37;;;;;;;;;;;22.30;65.90;;;;;;4985630;28;19914;-69
2023/05/30 13:40:04;;;;;;;;;;;22.30;65.80;;;;;;4986039;28;19925;-70
2023/05/30 13:42:29;;;;;;;;;;;22.40;65.90;;;;;;4984653;28;19917;-70
2023/05/30 13:44:55;;;;;;;;;;;22.40;65.70;;;;;;4986519;28;20645;-70
2023/05/30 13:47:21;;;;;;;;;;;22.40;65.60;;;;;;4986049;28;20456;-70
2023/05/30 13:49:47;;;;;;;;;;;22.50;65.70;;;;;;4983702;28;19922;-70
2023/05/30 13:52:13;;;;;;;;;;;22.50;65.60;;;;;;4986308;28;19921;-70
2023/05/30 13:54:40;;;;;;;;;;;22.60;65.60;;;;;;4986590;28;20541;-70
2023/05/30 13:57:06;;;;;;;;;;;22.60;65.40;;;;;;4986458;28;19914;-70
2023/05/30 13:59:32;;;;;;;;;;;22.70;65.20;;;;;;4974737;28;19953;-70
2023/05/30 14:01:58;;;;;;;;;;;22.80;65.20;;;;;;4966672;28;19941;-70
2023/05/30 14:04:24;;;;;;;;;;;22.80;65.30;;;;;;4972660;28;20283;-70
2023/05/30 14:06:54;;;;;;;;;;;22.80;65.20;;;;;;4986424;28;19916;-70
2023/05/30 14:09:19;;;;;;;;;;;22.90;65.40;;;;;;4986439;28;19947;-70
2023/05/30 14:11:47;;;;;;;;;;;22.90;65.10;;;;;;4986010;28;20310;-70
2023/05/30 14:14:13;;;;;;;;;;;22.90;65.00;;;;;;4986806;28;20006;-70